createdAt,value
2018-12-14T08:44:46.699Z,1003.17
2018-12-14T08:45:56.611Z,1003.2
2018-12-14T08:47:06.535Z,1003.18
2018-12-14T08:48:16.455Z,1003.21
2018-12-14T08:49:26.378Z,1003.23
2018-12-14T08:50:36.460Z,1003.24
2018-12-14T08:51:46.381Z,1003.24
2018-12-14T08:52:56.308Z,1003.25
2018-12-14T08:54:06.233Z,1003.32
2018-12-14T08:55:16.154Z,1003.28
2018-12-14T08:56:25.921Z,1003.36
2018-12-14T08:57:35.840Z,1003.3
2018-12-14T08:58:45.758Z,1003.3
2018-12-14T08:59:55.736Z,1003.32
2018-12-14T09:01:05.409Z,1003.37
2018-12-14T09:02:15.494Z,1003.38
2018-12-14T09:03:25.412Z,1003.36
2018-12-14T09:04:35.337Z,1003.37
2018-12-14T09:05:45.259Z,1003.35
2018-12-14T09:06:55.182Z,1003.34
2018-12-14T09:08:05.316Z,1003.37
2018-12-14T09:09:14.990Z,1003.37
2018-12-14T09:10:25.708Z,1003.39
2018-12-14T09:11:35.628Z,1003.44
2018-12-14T09:12:45.552Z,1003.5
2018-12-14T09:13:55.534Z,1003.5
2018-12-14T09:15:05.465Z,1003.5
2018-12-14T09:16:15.391Z,1003.51
2018-12-14T09:17:25.328Z,1003.55
2018-12-14T09:18:35.254Z,1003.52
2018-12-14T09:19:45.229Z,1003.55
2018-12-14T09:21:00.831Z,1003.53
2018-12-14T09:22:10.891Z,1003.54
2018-12-14T09:23:20.816Z,1003.52
2018-12-14T09:24:30.746Z,1003.57
2018-12-14T09:25:40.666Z,1003.53
2018-12-14T09:26:50.589Z,1003.54
2018-12-14T09:28:00.508Z,1003.6
2018-12-14T09:29:10.433Z,1003.6
2018-12-14T09:30:20.351Z,1003.58
2018-12-14T09:31:30.372Z,1003.56
2018-12-14T09:32:40.289Z,1003.56
2018-12-14T09:33:50.238Z,1003.56
2018-12-14T09:35:00.166Z,1003.56
2018-12-14T09:36:10.091Z,1003.55
2018-12-14T09:37:20.185Z,1003.56
2018-12-14T09:38:30.112Z,1003.54
2018-12-14T09:39:40.036Z,1003.54
2018-12-14T09:40:49.963Z,1003.55
2018-12-14T09:41:59.892Z,1003.59
2018-12-14T09:43:09.869Z,1003.59
2018-12-14T09:44:19.535Z,1003.6
2018-12-14T09:45:29.201Z,1003.57
2018-12-14T09:46:39.118Z,1003.53
2018-12-14T09:47:49.084Z,1003.54
2018-12-14T09:48:59.051Z,1003.52
2018-12-14T09:50:08.779Z,1003.56
2018-12-14T09:51:18.454Z,1003.61
2018-12-14T09:52:28.384Z,1003.61
2018-12-14T09:53:38.299Z,1003.6
2018-12-14T09:54:48.220Z,1003.54
2018-12-14T09:55:58.143Z,1003.53
2018-12-14T09:57:08.061Z,1003.55
2018-12-14T09:58:17.992Z,1003.6
2018-12-14T09:59:27.927Z,1003.55
2018-12-14T10:00:37.946Z,1003.54
2018-12-14T10:01:47.875Z,1003.57
2018-12-14T10:02:57.798Z,1003.58
2018-12-14T10:04:07.719Z,1003.49
2018-12-14T10:05:17.641Z,1003.52
2018-12-14T10:06:27.616Z,1003.53
2018-12-14T10:07:37.538Z,1003.46
2018-12-14T10:08:52.153Z,1003.54
2018-12-14T10:10:02.078Z,1003.57
2018-12-14T10:11:12.003Z,1003.55
2018-12-14T10:12:21.972Z,1003.57
2018-12-14T10:13:31.891Z,1003.59
2018-12-14T10:14:41.818Z,1003.56
2018-12-14T10:15:51.741Z,1003.58
2018-12-14T10:17:01.665Z,1003.55
2018-12-14T10:18:11.639Z,1003.56
2018-12-14T10:19:21.558Z,1003.57
2018-12-14T10:20:31.483Z,1003.54
2018-12-14T10:21:41.403Z,1003.54
2018-12-14T10:22:51.325Z,1003.55
2018-12-14T10:24:01.447Z,1003.55
2018-12-14T10:25:11.371Z,1003.5
2018-12-14T10:26:21.296Z,1003.49
2018-12-14T10:27:31.215Z,1003.48
2018-12-14T10:28:41.142Z,1003.49
2018-12-14T10:29:51.065Z,1003.5
2018-12-14T10:31:00.996Z,1003.5
2018-12-14T10:32:10.918Z,1003.5
2018-12-14T10:33:20.841Z,1003.48
2018-12-14T10:34:30.780Z,1003.5
2018-12-14T10:35:40.702Z,1003.44
2018-12-14T10:36:50.622Z,1003.46
2018-12-14T10:38:00.542Z,1003.48
2018-12-14T10:39:10.469Z,1003.45
2018-12-14T10:40:20.400Z,1003.46
2018-12-14T10:41:30.321Z,1003.45
2018-12-14T10:42:40.245Z,1003.41
2018-12-14T10:43:50.169Z,1003.44
2018-12-14T10:45:00.087Z,1003.44
2018-12-14T10:46:10.006Z,1003.41
2018-12-14T10:47:19.981Z,1003.37
2018-12-14T10:48:29.949Z,1003.38
2018-12-14T10:49:39.867Z,1003.35
2018-12-14T10:50:49.787Z,1003.36
2018-12-14T10:51:59.714Z,1003.37
2018-12-14T10:53:09.787Z,1003.42
2018-12-14T10:54:19.713Z,1003.37
2018-12-14T10:55:29.635Z,1003.39
2018-12-14T10:56:39.555Z,1003.28
2018-12-14T10:57:49.481Z,1003.35
2018-12-14T10:58:59.511Z,1003.35
2018-12-14T11:00:09.428Z,1003.32
2018-12-14T11:01:19.357Z,1003.28
2018-12-14T11:02:29.278Z,1003.32
2018-12-14T11:03:39.208Z,1003.3
2018-12-14T11:04:49.298Z,1003.31
2018-12-14T11:05:59.252Z,1003.32
2018-12-14T11:07:09.175Z,1003.35
2018-12-14T11:08:19.094Z,1003.34
2018-12-14T11:09:29.020Z,1003.36
2018-12-14T11:10:39.041Z,1003.32
2018-12-14T11:11:48.959Z,1003.33
2018-12-14T11:12:58.885Z,1003.31
2018-12-14T11:14:13.838Z,1003.36
2018-12-14T11:15:24.054Z,1003.3
2018-12-14T11:16:35.631Z,1003.32
2018-12-14T11:17:45.552Z,1003.3
2018-12-14T11:18:55.474Z,1003.33
2018-12-14T11:20:05.399Z,1003.32
2018-12-14T11:21:15.319Z,1003.24
2018-12-14T11:22:25.102Z,1003.19
2018-12-14T11:23:35.019Z,1003.21
2018-12-14T11:24:44.942Z,1003.23
2018-12-14T11:25:54.865Z,1003.26
2018-12-14T11:27:04.784Z,1003.24
2018-12-14T11:28:14.808Z,1003.22
2018-12-14T11:29:24.727Z,1003.19
2018-12-14T11:30:35.516Z,1003.19
2018-12-14T11:31:45.435Z,1003.18
2018-12-14T11:32:55.364Z,1003.16
2018-12-14T11:34:05.441Z,1003.23
2018-12-14T11:35:15.423Z,1003.21
2018-12-14T11:36:25.355Z,1003.18
2018-12-14T11:37:35.276Z,1003.15
2018-12-14T11:38:45.191Z,1003.16
2018-12-14T11:39:55.165Z,1003.13
2018-12-14T11:41:05.099Z,1003.14
2018-12-14T11:42:21.201Z,1003.18
2018-12-14T11:43:31.124Z,1003.15
2018-12-14T11:44:41.055Z,1003.13
2018-12-14T11:45:51.038Z,1003.11
2018-12-14T11:47:01.024Z,1003.11
2018-12-14T11:48:11.037Z,1003.1
2018-12-14T11:49:20.957Z,1003.17
2018-12-14T11:50:30.878Z,1003.13
2018-12-14T11:51:40.948Z,1003.12
2018-12-14T11:52:50.872Z,1003.12
2018-12-14T11:54:00.795Z,1003.13
2018-12-14T11:55:10.789Z,1003.12
2018-12-14T11:56:20.719Z,1003.13
2018-12-14T11:57:30.665Z,1003.14
2018-12-14T11:58:40.587Z,1003.14
2018-12-14T11:59:50.514Z,1003.12
2018-12-14T12:01:00.438Z,1003.07
2018-12-14T12:02:10.361Z,1003.08
2018-12-14T12:03:20.320Z,1003.09
2018-12-14T12:04:30.241Z,1003.07
2018-12-14T12:05:40.230Z,1003.09
2018-12-14T12:06:50.169Z,1003.08
2018-12-14T12:08:00.096Z,1003.03
2018-12-14T12:09:10.085Z,1003.08
2018-12-14T12:10:20.010Z,1003.08
2018-12-14T12:11:29.936Z,1003.1
2018-12-14T12:12:39.869Z,1003.1
2018-12-14T12:13:49.786Z,1003.1
2018-12-14T12:14:59.722Z,1003.09
2018-12-14T12:16:10.194Z,1003.06
2018-12-14T12:17:19.861Z,1003.03
2018-12-14T12:18:29.784Z,1003.05
2018-12-14T12:19:39.708Z,1003.08
2018-12-14T12:20:49.732Z,1003.1
2018-12-14T12:22:00.597Z,1003.08
2018-12-14T12:23:10.522Z,1003.01
2018-12-14T12:24:21.106Z,1003.05
2018-12-14T12:25:31.027Z,1003.06
2018-12-14T12:26:40.946Z,1003.02
2018-12-14T12:27:50.866Z,1003.06
2018-12-14T12:29:00.785Z,1003.03
2018-12-14T12:30:10.705Z,1003.04
2018-12-14T12:31:20.625Z,1003.04
2018-12-14T12:32:30.401Z,1003.02
2018-12-14T12:33:40.322Z,1003.06
2018-12-14T12:34:50.261Z,1003.06
2018-12-14T12:36:00.180Z,1003.08
2018-12-14T12:37:10.098Z,1003.09
2018-12-14T12:38:20.133Z,1003.04
2018-12-14T12:39:29.806Z,1003.02
2018-12-14T12:40:39.762Z,1002.96
2018-12-14T12:41:49.682Z,1002.93
2018-12-14T12:42:59.603Z,1002.98
2018-12-14T12:44:09.630Z,1003.01
2018-12-14T12:45:20.278Z,1003.01
2018-12-14T12:46:30.284Z,1003.01
2018-12-14T12:47:40.206Z,1003.03
2018-12-14T12:48:50.154Z,1003.04
2018-12-14T12:50:00.177Z,1003.03
2018-12-14T12:51:10.105Z,1003.01
2018-12-14T12:52:20.031Z,1002.99
2018-12-14T12:53:29.955Z,1003.02
2018-12-14T12:54:39.883Z,1003.01
2018-12-14T12:55:49.912Z,1003.04
2018-12-14T12:56:59.833Z,1003.06
2018-12-14T12:58:09.761Z,1003.08
2018-12-14T12:59:19.680Z,1003.11
2018-12-14T13:00:29.605Z,1003.11
2018-12-14T13:01:39.574Z,1003.12
2018-12-14T13:02:49.495Z,1003.11
2018-12-14T13:03:59.414Z,1003.1
2018-12-14T13:05:09.336Z,1003.07
2018-12-14T13:06:19.261Z,1003.12
2018-12-14T13:07:29.234Z,1003.12
2018-12-14T13:08:39.153Z,1003.1
2018-12-14T13:09:49.074Z,1003.15
2018-12-14T13:10:58.998Z,1003.12
2018-12-14T13:12:08.918Z,1003.09
2018-12-14T13:13:18.891Z,1003.09
2018-12-14T13:14:28.817Z,1003.09
2018-12-14T13:15:45.099Z,1003.15
2018-12-14T13:16:55.021Z,1003.15
2018-12-14T13:18:05.632Z,1003.14
2018-12-14T13:19:15.789Z,1003.12
2018-12-14T13:20:25.709Z,1003.13
2018-12-14T13:21:35.626Z,1003.13
2018-12-14T13:22:45.546Z,1003.14
2018-12-14T13:23:55.469Z,1003.14
2018-12-14T13:25:05.542Z,1003.1
2018-12-14T13:26:15.470Z,1003.1
2018-12-14T13:27:25.460Z,1003.05
2018-12-14T13:28:35.384Z,1003.06
2018-12-14T13:29:45.309Z,1003.05
2018-12-14T13:30:55.333Z,1003.06
2018-12-14T13:32:05.262Z,1003.09
2018-12-14T13:33:15.182Z,1003.07
2018-12-14T13:34:25.105Z,1003.09
2018-12-14T13:35:35.035Z,1003.11
2018-12-14T13:36:44.954Z,1003.08
2018-12-14T13:37:54.870Z,1003.12
2018-12-14T13:39:04.815Z,1003.09
2018-12-14T13:40:14.770Z,1003.09
2018-12-14T13:41:24.540Z,1003.14
2018-12-14T13:42:34.534Z,1003.13
2018-12-14T13:43:44.228Z,1003.13
2018-12-14T13:44:54.203Z,1003.17
2018-12-14T13:46:04.199Z,1003.18
2018-12-14T13:47:14.144Z,1003.12
2018-12-14T13:48:23.944Z,1003.09
2018-12-14T13:49:33.927Z,1003.11
2018-12-14T13:50:43.909Z,1003.11
2018-12-14T13:51:53.830Z,1003.14
2018-12-14T13:53:03.762Z,1003.13
2018-12-14T13:54:13.685Z,1003.14
2018-12-14T13:55:23.601Z,1003.14
2018-12-14T13:56:34.328Z,1003.1
2018-12-14T13:57:45.560Z,1003.13
2018-12-14T13:58:55.586Z,1003.17
2018-12-14T14:00:05.505Z,1003.17
2018-12-14T14:01:15.424Z,1003.15
2018-12-14T14:02:25.345Z,1003.15
2018-12-14T14:03:35.334Z,1003.19
2018-12-14T14:04:45.256Z,1003.18
2018-12-14T14:05:55.283Z,1003.17
2018-12-14T14:07:04.951Z,1003.17
2018-12-14T14:08:14.618Z,1003.17
2018-12-14T14:09:24.284Z,1003.19
2018-12-14T14:10:34.202Z,1003.16
2018-12-14T14:11:44.085Z,1003.19
2018-12-14T14:12:54.005Z,1003.18
2018-12-14T14:14:03.923Z,1003.24
2018-12-14T14:15:13.845Z,1003.21
2018-12-14T14:16:28.546Z,1003.24
2018-12-14T14:17:38.519Z,1003.24
2018-12-14T14:18:48.438Z,1003.23
2018-12-14T14:19:58.358Z,1003.21
2018-12-14T14:21:08.280Z,1003.21
2018-12-14T14:22:18.200Z,1003.18
2018-12-14T14:23:28.222Z,1003.17
2018-12-14T14:24:38.143Z,1003.19
2018-12-14T14:25:48.127Z,1003.2
2018-12-14T14:26:58.062Z,1003.24
2018-12-14T14:28:07.981Z,1003.21
2018-12-14T14:29:18.181Z,1003.23
2018-12-14T14:30:28.103Z,1003.19
2018-12-14T14:31:38.038Z,1003.2
2018-12-14T14:32:47.960Z,1003.19
2018-12-14T14:33:57.938Z,1003.21
2018-12-14T14:35:07.969Z,1003.19
2018-12-14T14:36:17.890Z,1003.2
2018-12-14T14:37:27.866Z,1003.17
2018-12-14T14:38:37.791Z,1003.18
2018-12-14T14:39:47.717Z,1003.16
2018-12-14T14:40:57.709Z,1003.21
2018-12-14T14:42:07.632Z,1003.2
2018-12-14T14:43:17.554Z,1003.19
2018-12-14T14:44:27.480Z,1003.19
2018-12-14T14:45:37.401Z,1003.22
2018-12-14T14:46:47.169Z,1003.18
2018-12-14T14:47:57.090Z,1003.19
2018-12-14T14:49:07.012Z,1003.14
2018-12-14T14:50:17.192Z,1003.16
2018-12-14T14:51:27.164Z,1003.16
2018-12-14T14:52:37.237Z,1003.22
2018-12-14T14:53:47.163Z,1003.23
2018-12-14T14:54:57.085Z,1003.19
2018-12-14T14:56:07.009Z,1003.16
2018-12-14T14:57:16.926Z,1003.12
2018-12-14T14:58:26.969Z,1003.12
2018-12-14T14:59:36.894Z,1003.17
2018-12-14T15:00:46.823Z,1003.18
2018-12-14T15:01:56.742Z,1003.2
2018-12-14T15:03:06.665Z,1003.19
2018-12-14T15:04:16.636Z,1003.2
2018-12-14T15:05:26.558Z,1003.16
2018-12-14T15:06:36.518Z,1003.11
2018-12-14T15:07:46.437Z,1003.16
2018-12-14T15:08:56.365Z,1003.19
2018-12-14T15:10:06.336Z,1003.24
2018-12-14T15:11:16.257Z,1003.17
2018-12-14T15:12:26.179Z,1003.18
2018-12-14T15:13:36.104Z,1003.17
2018-12-14T15:14:46.030Z,1003.16
2018-12-14T15:15:56.001Z,1003.19
2018-12-14T15:17:05.928Z,1003.18
2018-12-14T15:18:15.851Z,1003.21
2018-12-14T15:19:25.774Z,1003.22
2018-12-14T15:20:35.692Z,1003.21
2018-12-14T15:21:45.669Z,1003.18
2018-12-14T15:22:55.591Z,1003.17
2018-12-14T15:24:05.511Z,1003.21
2018-12-14T15:25:15.492Z,1003.21
2018-12-14T15:26:25.413Z,1003.13
2018-12-14T15:27:35.433Z,1003.17
2018-12-14T15:28:45.353Z,1003.19
2018-12-14T15:29:55.274Z,1003.16
2018-12-14T15:31:04.949Z,1003.21
2018-12-14T15:32:14.868Z,1003.19
2018-12-14T15:33:24.839Z,1003.17
2018-12-14T15:34:34.759Z,1003.18
2018-12-14T15:35:44.678Z,1003.18
2018-12-14T15:36:54.603Z,1003.19
2018-12-14T15:38:04.272Z,1003.19
2018-12-14T15:39:14.249Z,1003.15
2018-12-14T15:40:23.924Z,1003.12
2018-12-14T15:41:33.849Z,1003.16
2018-12-14T15:42:43.829Z,1003.13
2018-12-14T15:43:53.750Z,1003.08
2018-12-14T15:45:03.782Z,1003.17
2018-12-14T15:46:18.393Z,1003.17
2018-12-14T15:47:29.751Z,1003.15
2018-12-14T15:48:39.669Z,1003.15
2018-12-14T15:49:49.598Z,1003.18
2018-12-14T15:50:59.620Z,1003.16
2018-12-14T15:52:09.541Z,1003.17
2018-12-14T15:53:19.466Z,1003.19
2018-12-14T15:54:29.389Z,1003.19
2018-12-14T15:55:39.377Z,1003.21
2018-12-14T15:56:49.347Z,1003.17
2018-12-14T15:57:59.266Z,1003.14
2018-12-14T15:59:09.264Z,1003.16
2018-12-14T16:00:18.942Z,1003.16
2018-12-14T16:01:28.877Z,1003.11
2018-12-14T16:02:38.609Z,1003.13
2018-12-14T16:03:48.543Z,1003.14
2018-12-14T16:04:58.468Z,1003.16
2018-12-14T16:06:08.392Z,1003.14
2018-12-14T16:07:18.316Z,1003.2
2018-12-14T16:08:28.336Z,1003.2
2018-12-14T16:09:38.257Z,1003.21
2018-12-14T16:10:48.213Z,1003.2
2018-12-14T16:11:58.140Z,1003.26
2018-12-14T16:13:08.061Z,1003.24
2018-12-14T16:14:18.125Z,1003.23
2018-12-14T16:15:34.735Z,1003.2
2018-12-14T16:16:44.678Z,1003.27
2018-12-14T16:17:54.645Z,1003.22
2018-12-14T16:19:04.645Z,1003.26
2018-12-14T16:20:14.697Z,1003.33
2018-12-14T16:21:24.667Z,1003.35
2018-12-14T16:22:34.628Z,1003.33
2018-12-14T16:23:44.575Z,1003.34
2018-12-14T16:24:54.497Z,1003.36
2018-12-14T16:26:04.575Z,1003.35
2018-12-14T16:27:14.558Z,1003.35
2018-12-14T16:28:24.243Z,1003.4
2018-12-14T16:29:34.169Z,1003.4
2018-12-14T16:30:44.101Z,1003.37
2018-12-14T16:31:54.167Z,1003.41
2018-12-14T16:33:04.088Z,1003.46
2018-12-14T16:34:14.012Z,1003.42
2018-12-14T16:35:23.934Z,1003.49
2018-12-14T16:36:33.853Z,1003.5
2018-12-14T16:37:43.877Z,1003.47
2018-12-14T16:38:54.158Z,1003.43
2018-12-14T16:40:04.088Z,1003.44
2018-12-14T16:41:14.006Z,1003.44
2018-12-14T16:42:23.930Z,1003.39
2018-12-14T16:43:33.903Z,1003.39
2018-12-14T16:44:43.823Z,1003.42
2018-12-14T16:45:53.746Z,1003.41
2018-12-14T16:47:03.670Z,1003.37
2018-12-14T16:48:13.598Z,1003.35
2018-12-14T16:49:23.623Z,1003.33
2018-12-14T16:50:33.544Z,1003.37
2018-12-14T16:51:43.464Z,1003.35
2018-12-14T16:52:53.383Z,1003.38
2018-12-14T16:54:03.316Z,1003.36
2018-12-14T16:55:13.241Z,1003.34
2018-12-14T16:56:23.167Z,1003.37
2018-12-14T16:57:33.086Z,1003.34
2018-12-14T16:58:43.009Z,1003.36
2018-12-14T16:59:52.929Z,1003.31
2018-12-14T17:01:02.954Z,1003.39
2018-12-14T17:02:12.874Z,1003.4
2018-12-14T17:03:22.790Z,1003.39
2018-12-14T17:04:32.765Z,1003.39
2018-12-14T17:05:42.685Z,1003.45
2018-12-14T17:06:52.662Z,1003.41
2018-12-14T17:08:02.589Z,1003.39
2018-12-14T17:09:12.255Z,1003.42
2018-12-14T17:10:22.180Z,1003.42
2018-12-14T17:11:32.096Z,1003.38
2018-12-14T17:12:42.118Z,1003.4
2018-12-14T17:13:52.049Z,1003.41
2018-12-14T17:15:01.991Z,1003.41
2018-12-14T17:16:11.918Z,1003.42
2018-12-14T17:17:21.912Z,1003.47
2018-12-14T17:18:31.879Z,1003.49
2018-12-14T17:19:41.799Z,1003.52
2018-12-14T17:20:51.718Z,1003.5
2018-12-14T17:22:01.661Z,1003.51
2018-12-14T17:23:11.584Z,1003.44
2018-12-14T17:24:21.608Z,1003.41
2018-12-14T17:25:31.273Z,1003.42
2018-12-14T17:26:41.192Z,1003.41
2018-12-14T17:27:51.112Z,1003.45
2018-12-14T17:29:01.037Z,1003.38
2018-12-14T17:30:11.010Z,1003.41
2018-12-14T17:31:20.933Z,1003.41
2018-12-14T17:32:30.868Z,1003.43
2018-12-14T17:33:40.792Z,1003.4
2018-12-14T17:34:50.472Z,1003.33
2018-12-14T17:36:00.441Z,1003.38
2018-12-14T17:37:10.420Z,1003.37
2018-12-14T17:38:20.341Z,1003.42
2018-12-14T17:39:30.264Z,1003.42
2018-12-14T17:40:40.185Z,1003.34
2018-12-14T17:41:51.252Z,1003.35
2018-12-14T17:43:01.879Z,1003.32
2018-12-14T17:44:11.807Z,1003.31
2018-12-14T17:45:21.798Z,1003.33
2018-12-14T17:46:31.719Z,1003.33
2018-12-14T17:47:41.740Z,1003.37
2018-12-14T17:48:51.663Z,1003.38
2018-12-14T17:50:01.587Z,1003.4
2018-12-14T17:51:11.322Z,1003.36
2018-12-14T17:52:21.283Z,1003.39
2018-12-14T17:53:31.318Z,1003.36
2018-12-14T17:54:41.253Z,1003.47
2018-12-14T17:55:51.173Z,1003.41
2018-12-14T17:57:01.097Z,1003.42
2018-12-14T17:58:10.767Z,1003.45
2018-12-14T17:59:20.740Z,1003.43
2018-12-14T18:00:30.722Z,1003.44
2018-12-14T18:01:40.640Z,1003.42
2018-12-14T18:02:50.559Z,1003.45
2018-12-14T18:04:00.489Z,1003.38
2018-12-14T18:05:10.525Z,1003.45
2018-12-14T18:06:20.447Z,1003.43
2018-12-14T18:07:30.369Z,1003.37
2018-12-14T18:08:40.336Z,1003.38
2018-12-14T18:09:50.256Z,1003.4
2018-12-14T18:11:00.233Z,1003.36
2018-12-14T18:12:10.151Z,1003.35
2018-12-14T18:13:20.071Z,1003.4
2018-12-14T18:14:29.993Z,1003.35
2018-12-14T18:15:46.182Z,1003.41
2018-12-14T18:16:56.405Z,1003.39
2018-12-14T18:18:06.334Z,1003.41
2018-12-14T18:19:16.253Z,1003.46
2018-12-14T18:20:26.182Z,1003.39
2018-12-14T18:21:36.103Z,1003.46
2018-12-14T18:22:46.076Z,1003.45
2018-12-14T18:23:55.996Z,1003.44
2018-12-14T18:25:05.918Z,1003.46
2018-12-14T18:26:15.846Z,1003.41
2018-12-14T18:27:25.766Z,1003.39
2018-12-14T18:28:35.784Z,1003.44
2018-12-14T18:29:45.703Z,1003.42
2018-12-14T18:30:55.620Z,1003.41
2018-12-14T18:32:05.551Z,1003.41
2018-12-14T18:33:15.485Z,1003.47
2018-12-14T18:34:25.467Z,1003.47
2018-12-14T18:35:35.393Z,1003.44
2018-12-14T18:36:45.311Z,1003.44
2018-12-14T18:37:55.236Z,1003.46
2018-12-14T18:39:05.157Z,1003.45
2018-12-14T18:40:15.128Z,1003.42
2018-12-14T18:41:25.051Z,1003.44
2018-12-14T18:42:34.969Z,1003.42
2018-12-14T18:43:44.892Z,1003.44
2018-12-14T18:44:54.814Z,1003.43
2018-12-14T18:46:04.885Z,1003.43
2018-12-14T18:47:14.815Z,1003.43
2018-12-14T18:48:24.743Z,1003.46
2018-12-14T18:49:35.650Z,1003.5
2018-12-14T18:50:45.573Z,1003.56
2018-12-14T18:51:55.546Z,1003.55
2018-12-14T18:53:05.475Z,1003.55
2018-12-14T18:54:15.398Z,1003.57
2018-12-14T18:55:25.316Z,1003.52
2018-12-14T18:56:35.730Z,1003.54
2018-12-14T18:57:45.700Z,1003.44
2018-12-14T18:58:55.620Z,1003.47
2018-12-14T19:00:05.544Z,1003.46
2018-12-14T19:01:15.473Z,1003.51
2018-12-14T19:02:25.392Z,1003.49
2018-12-14T19:03:35.411Z,1003.48
2018-12-14T19:04:45.357Z,1003.48
2018-12-14T19:05:55.276Z,1003.39
2018-12-14T19:07:05.204Z,1003.36
2018-12-14T19:08:15.122Z,1003.37
2018-12-14T19:09:25.188Z,1003.35
2018-12-14T19:10:35.110Z,1003.34
2018-12-14T19:11:45.028Z,1003.31
2018-12-14T19:12:54.957Z,1003.32
2018-12-14T19:14:04.883Z,1003.34
2018-12-14T19:15:14.851Z,1003.4
2018-12-14T19:16:24.769Z,1003.41
2018-12-14T19:17:34.685Z,1003.47
2018-12-14T19:18:44.603Z,1003.42
2018-12-14T19:19:54.583Z,1003.42
2018-12-14T19:21:04.603Z,1003.36
2018-12-14T19:22:14.527Z,1003.37
2018-12-14T19:23:24.448Z,1003.36
2018-12-14T19:24:34.372Z,1003.35
2018-12-14T19:25:44.289Z,1003.36
2018-12-14T19:26:54.257Z,1003.4
2018-12-14T19:28:04.187Z,1003.34
2018-12-14T19:29:14.121Z,1003.34
2018-12-14T19:30:24.047Z,1003.32
2018-12-14T19:31:33.963Z,1003.31
2018-12-14T19:32:43.988Z,1003.31
2018-12-14T19:33:53.902Z,1003.37
2018-12-14T19:35:03.823Z,1003.38
2018-12-14T19:36:13.738Z,1003.4
2018-12-14T19:37:23.655Z,1003.42
2018-12-14T19:38:33.678Z,1003.44
2018-12-14T19:39:43.594Z,1003.44
2018-12-14T19:40:53.517Z,1003.35
2018-12-14T19:42:03.436Z,1003.4
2018-12-14T19:43:13.372Z,1003.38
2018-12-14T19:44:23.393Z,1003.34
2018-12-14T19:45:33.312Z,1003.39
2018-12-14T19:46:43.228Z,1003.36
2018-12-14T19:47:53.150Z,1003.35
2018-12-14T19:49:03.072Z,1003.32
2018-12-14T19:50:13.089Z,1003.33
2018-12-14T19:51:23.006Z,1003.35
2018-12-14T19:52:32.932Z,1003.34
2018-12-14T19:53:43.883Z,1003.35
2018-12-14T19:54:53.800Z,1003.34
2018-12-14T19:56:03.772Z,1003.39
2018-12-14T19:57:13.689Z,1003.43
2018-12-14T19:58:23.605Z,1003.36
2018-12-14T19:59:33.527Z,1003.37
2018-12-14T20:00:43.450Z,1003.41
2018-12-14T20:01:53.415Z,1003.39
2018-12-14T20:03:03.335Z,1003.41
2018-12-14T20:04:13.255Z,1003.42
2018-12-14T20:05:23.170Z,1003.46
2018-12-14T20:06:33.089Z,1003.45
2018-12-14T20:07:43.107Z,1003.43
2018-12-14T20:08:53.034Z,1003.41
2018-12-14T20:10:02.955Z,1003.38
2018-12-14T20:11:12.875Z,1003.39
2018-12-14T20:12:22.793Z,1003.41
2018-12-14T20:13:32.767Z,1003.4
2018-12-14T20:14:42.692Z,1003.43
2018-12-14T20:15:57.371Z,1003.45
2018-12-14T20:17:13.208Z,1003.37
2018-12-14T20:18:23.130Z,1003.43
2018-12-14T20:19:33.148Z,1003.49
2018-12-14T20:20:43.067Z,1003.46
2018-12-14T20:21:52.985Z,1003.49
2018-12-14T20:23:02.903Z,1003.45
2018-12-14T20:24:12.825Z,1003.44
2018-12-14T20:25:22.792Z,1003.51
2018-12-14T20:26:32.708Z,1003.46
2018-12-14T20:27:42.626Z,1003.47
2018-12-14T20:28:52.544Z,1003.49
2018-12-14T20:30:02.472Z,1003.54
2018-12-14T20:31:12.505Z,1003.51
2018-12-14T20:32:22.426Z,1003.52
2018-12-14T20:33:32.341Z,1003.44
2018-12-14T20:34:42.268Z,1003.49
2018-12-14T20:35:52.187Z,1003.52
2018-12-14T20:37:02.210Z,1003.46
2018-12-14T20:38:12.171Z,1003.46
2018-12-14T20:39:22.104Z,1003.48
2018-12-14T20:40:32.025Z,1003.51
2018-12-14T20:41:41.947Z,1003.55
2018-12-14T20:42:51.866Z,1003.55
2018-12-14T20:44:01.815Z,1003.55
2018-12-14T20:45:11.735Z,1003.54
2018-12-14T20:46:21.659Z,1003.53
2018-12-14T20:47:31.582Z,1003.55
2018-12-14T20:48:41.502Z,1003.56
2018-12-14T20:49:51.420Z,1003.6
2018-12-14T20:51:01.348Z,1003.59
2018-12-14T20:52:11.268Z,1003.58
2018-12-14T20:53:21.188Z,1003.56
2018-12-14T20:54:31.161Z,1003.51
2018-12-14T20:55:42.028Z,1003.5
2018-12-14T20:56:51.968Z,1003.51
2018-12-14T20:58:01.900Z,1003.53
2018-12-14T20:59:11.818Z,1003.53
2018-12-14T21:00:21.839Z,1003.54
2018-12-14T21:01:31.506Z,1003.58
2018-12-14T21:02:41.427Z,1003.58
2018-12-14T21:03:51.349Z,1003.54
2018-12-14T21:05:01.275Z,1003.57
2018-12-14T21:06:11.294Z,1003.55
2018-12-14T21:07:21.221Z,1003.55
2018-12-14T21:08:31.137Z,1003.51
2018-12-14T21:09:41.057Z,1003.52
2018-12-14T21:10:51.034Z,1003.57
2018-12-14T21:12:01.049Z,1003.59
2018-12-14T21:13:10.965Z,1003.57
2018-12-14T21:14:20.889Z,1003.54
2018-12-14T21:15:30.805Z,1003.54
2018-12-14T21:16:40.739Z,1003.54
2018-12-14T21:17:50.706Z,1003.53
2018-12-14T21:19:00.629Z,1003.5
2018-12-14T21:20:10.552Z,1003.48
2018-12-14T21:21:20.474Z,1003.57
2018-12-14T21:22:30.474Z,1003.55
2018-12-14T21:23:40.454Z,1003.49
2018-12-14T21:24:50.379Z,1003.5
2018-12-14T21:26:00.298Z,1003.53
2018-12-14T21:27:10.279Z,1003.51
2018-12-14T21:28:19.944Z,1003.52
2018-12-14T21:29:29.968Z,1003.47
2018-12-14T21:30:39.889Z,1003.48
2018-12-14T21:31:49.808Z,1003.5
2018-12-14T21:32:59.725Z,1003.53
2018-12-14T21:34:09.647Z,1003.49
2018-12-14T21:35:19.925Z,1003.47
2018-12-14T21:36:29.849Z,1003.5
2018-12-14T21:37:39.766Z,1003.45
2018-12-14T21:38:49.696Z,1003.46
2018-12-14T21:39:59.363Z,1003.46
2018-12-14T21:41:09.335Z,1003.47
2018-12-14T21:42:19.262Z,1003.46
2018-12-14T21:43:29.204Z,1003.42
2018-12-14T21:44:39.125Z,1003.44
2018-12-14T21:45:49.043Z,1003.41
2018-12-14T21:46:59.011Z,1003.43
2018-12-14T21:48:08.934Z,1003.38
2018-12-14T21:49:18.857Z,1003.4
2018-12-14T21:50:28.782Z,1003.36
2018-12-14T21:51:38.699Z,1003.37
2018-12-14T21:52:48.717Z,1003.37
2018-12-14T21:53:58.638Z,1003.36
2018-12-14T21:55:08.555Z,1003.3
2018-12-14T21:56:18.473Z,1003.32
2018-12-14T21:57:28.406Z,1003.32
2018-12-14T21:58:38.375Z,1003.34
2018-12-14T21:59:48.297Z,1003.32
2018-12-14T22:00:58.217Z,1003.35
2018-12-14T22:02:08.142Z,1003.39
2018-12-14T22:03:18.060Z,1003.43
2018-12-14T22:04:28.082Z,1003.35
2018-12-14T22:05:38.748Z,1003.34
2018-12-14T22:06:48.667Z,1003.35
2018-12-14T22:07:58.594Z,1003.32
2018-12-14T22:09:08.516Z,1003.37
2018-12-14T22:10:18.536Z,1003.37
2018-12-14T22:11:28.455Z,1003.35
2018-12-14T22:12:38.370Z,1003.31
2018-12-14T22:13:48.288Z,1003.28
2018-12-14T22:14:58.215Z,1003.26
2018-12-14T22:16:08.744Z,1003.28
2018-12-14T22:17:18.668Z,1003.28
2018-12-14T22:18:28.593Z,1003.27
2018-12-14T22:19:38.517Z,1003.31
2018-12-14T22:20:48.500Z,1003.26
2018-12-14T22:21:59.571Z,1003.34
2018-12-14T22:23:09.495Z,1003.32
2018-12-14T22:24:19.420Z,1003.34
2018-12-14T22:25:29.344Z,1003.34
2018-12-14T22:26:39.275Z,1003.33
2018-12-14T22:27:49.290Z,1003.32
2018-12-14T22:28:59.818Z,1003.33
2018-12-14T22:30:09.490Z,1003.32
2018-12-14T22:31:19.407Z,1003.32
2018-12-14T22:32:29.329Z,1003.37
2018-12-14T22:33:39.357Z,1003.32
2018-12-14T22:34:49.281Z,1003.28
2018-12-14T22:35:59.201Z,1003.28
2018-12-14T22:37:09.128Z,1003.31
2018-12-14T22:38:18.798Z,1003.27
2018-12-14T22:39:28.822Z,1003.31
2018-12-14T22:40:38.742Z,1003.29
2018-12-14T22:41:48.670Z,1003.28
2018-12-14T22:42:58.604Z,1003.26
2018-12-14T22:44:08.522Z,1003.24
2018-12-14T22:45:24.341Z,1003.23
2018-12-14T22:46:34.261Z,1003.26
2018-12-14T22:47:50.740Z,1003.22
2018-12-14T22:49:00.674Z,1003.26
2018-12-14T22:50:10.661Z,1003.25
2018-12-14T22:51:20.677Z,1003.23
2018-12-14T22:52:30.599Z,1003.21
2018-12-14T22:53:40.519Z,1003.23